Terminal Aerodrome Forecast
Issued by NWS Melbourne, FL

Home | Current Version | Previous Version | Text Only | Print | Product List | Glossary On
Versions: 1 2 3 4 5 6 7 8 9 10 11 12 13 14 15 16 17 18 19
000
FTUS42 KMLB 041752
TAFVRB
TAF
KVRB 041752Z 0418/0518 15011G18KT P6SM SCT025 SCT035
     FM050100 17005KT P6SM FEW020 SCT030=

USA.gov is the U.S. government's official web portal to all federal, state and local government web resources and services.